Time;durP1;ratioP1;P1;durP2;ratioP2;P2;SDS_P1;SDS_P2;PMS_P1;PMS_P2;Temp;Humidity;BMP_temperature;BMP_pressure;BME280_temperature;BME280_humidity;BME280_pressure;Samples;Min_cycle;Max_cycle;Signal;HPM_P1;HPM_P2
2023/03/05 00:01:27;;;;;;;751.23;579.07;;;4.10;99.90;;;;;;5088474;28;20720;-50
2023/03/05 00:03:57;;;;;;;1420.27;741.00;;;4.10;99.90;;;;;;5089124;28;20288;-50
2023/03/05 00:06:29;;;;;;;818.40;726.47;;;4.10;99.90;;;;;;5089333;28;20208;-49
2023/03/05 00:08:59;;;;;;;706.43;630.30;;;4.10;99.90;;;;;;5089238;28;20240;-50
2023/03/05 00:11:29;;;;;;;1999.90;786.73;;;4.00;99.90;;;;;;5088990;28;20239;-50
2023/03/05 00:13:58;;;;;;;1999.90;999.90;;;4.00;99.90;;;;;;5089170;28;20295;-50
2023/03/05 00:16:26;;;;;;;678.83;618.57;;;4.00;99.90;;;;;;5088936;28;20236;-50
2023/03/05 00:18:56;;;;;;;771.20;665.87;;;4.00;99.90;;;;;;5089348;28;20238;-50
2023/03/05 00:21:26;;;;;;;798.67;680.90;;;4.00;99.90;;;;;;5088279;28;20233;-50
2023/03/05 00:23:55;;;;;;;504.00;452.33;;;4.00;99.90;;;;;;5089404;28;20290;-49
2023/03/05 00:26:26;;;;;;;617.57;559.47;;;4.00;99.90;;;;;;5089002;28;20642;-49
2023/03/05 00:28:56;;;;;;;1991.53;747.73;;;4.00;99.90;;;;;;5089397;28;20274;-50
2023/03/05 00:31:29;;;;;;;613.93;551.40;;;4.00;99.90;;;;;;5093012;28;21033;-50
2023/03/05 00:33:58;;;;;;;1821.70;823.77;;;4.00;99.90;;;;;;5094284;28;20295;-50
2023/03/05 00:36:27;;;;;;;1967.90;852.50;;;4.00;99.90;;;;;;5093145;28;20294;-50
2023/03/05 00:38:56;;;;;;;694.80;620.10;;;4.00;99.90;;;;;;5090878;28;20742;-50
2023/03/05 00:41:25;;;;;;;1241.77;661.50;;;4.00;99.90;;;;;;5090791;28;20239;-50
2023/03/05 00:43:53;;;;;;;559.93;507.77;;;4.00;99.90;;;;;;5091596;28;20302;-50
2023/03/05 00:46:23;;;;;;;570.83;508.93;;;4.00;99.90;;;;;;5091875;28;20215;-48
2023/03/05 00:48:51;;;;;;;589.50;531.67;;;4.00;99.90;;;;;;5090998;28;20235;-49
2023/03/05 00:51:19;;;;;;;368.67;335.53;;;4.10;99.90;;;;;;5091231;28;20228;-50
2023/03/05 00:53:47;;;;;;;323.13;296.53;;;4.10;99.90;;;;;;5091238;28;20299;-50
2023/03/05 00:56:15;;;;;;;372.27;342.10;;;4.10;99.90;;;;;;5091063;28;20306;-50
2023/03/05 00:58:45;;;;;;;332.97;289.00;;;4.10;99.90;;;;;;5090657;28;20291;-49
2023/03/05 01:01:13;;;;;;;272.67;250.33;;;4.10;99.90;;;;;;5088214;28;20295;-50
2023/03/05 01:03:41;;;;;;;187.77;172.37;;;4.10;99.90;;;;;;5088784;28;20291;-50
2023/03/05 01:06:12;;;;;;;490.20;391.20;;;4.10;99.90;;;;;;5104084;28;20215;-50
2023/03/05 01:08:40;;;;;;;451.90;407.70;;;4.10;99.90;;;;;;5093105;28;20278;-50
2023/03/05 01:11:09;;;;;;;432.47;392.00;;;4.10;99.90;;;;;;5092219;28;20231;-50
2023/03/05 01:13:37;;;;;;;371.40;338.77;;;4.10;99.90;;;;;;5092809;28;20314;-50
2023/03/05 01:16:08;;;;;;;203.13;186.87;;;4.10;99.90;;;;;;5092627;28;20870;-49
2023/03/05 01:18:37;;;;;;;461.43;403.03;;;4.10;99.90;;;;;;5092708;28;20614;-51
2023/03/05 01:21:06;;;;;;;371.50;323.40;;;4.10;99.90;;;;;;5092258;28;20249;-50
2023/03/05 01:23:36;;;;;;;1999.90;687.97;;;4.10;99.90;;;;;;5092646;28;20207;-50
2023/03/05 01:26:05;;;;;;;1999.90;780.13;;;4.00;99.90;;;;;;5092426;28;20206;-50
2023/03/05 01:28:33;;;;;;;1999.90;996.43;;;4.00;99.90;;;;;;5091941;28;20743;-50
2023/03/05 01:31:01;;;;;;;1345.20;719.70;;;3.90;99.90;;;;;;5090384;28;20246;-50
2023/03/05 01:33:30;;;;;;;1999.90;895.40;;;3.90;99.90;;;;;;5085873;28;20218;-50
2023/03/05 01:35:58;;;;;;;1888.17;891.33;;;3.80;99.90;;;;;;5091559;28;20310;-49
2023/03/05 01:38:26;;;;;;;1999.90;999.90;;;3.70;99.90;;;;;;5092222;28;20644;-49
2023/03/05 01:40:54;;;;;;;942.10;778.13;;;3.70;99.90;;;;;;5091879;28;20314;-50
2023/03/05 01:43:25;;;;;;;1041.53;842.27;;;3.70;99.90;;;;;;5092460;28;20208;-50
2023/03/05 01:46:29;;;;;;;1999.90;986.17;;;3.80;99.90;;;;;;5092099;28;20233;-49
2023/03/05 01:49:04;;;;;;;1999.90;999.90;;;3.80;99.90;;;;;;5089079;28;20206;-50
2023/03/05 01:51:35;;;;;;;1295.87;864.30;;;3.70;99.90;;;;;;5091635;28;20759;-50
2023/03/05 01:54:06;;;;;;;1965.67;838.60;;;3.70;99.90;;;;;;5091209;28;20208;-49
2023/03/05 01:56:34;;;;;;;1999.90;910.23;;;3.70;99.90;;;;;;5091949;28;20256;-50
2023/03/05 01:59:03;;;;;;;846.17;676.20;;;3.70;99.90;;;;;;5091765;28;20215;-50
2023/03/05 02:01:34;;;;;;;1999.90;933.53;;;3.70;99.90;;;;;;5091610;28;20272;-49
2023/03/05 02:04:03;;;;;;;1167.60;796.47;;;3.70;99.90;;;;;;5091270;28;20757;-50
2023/03/05 02:06:31;;;;;;;692.57;631.23;;;3.70;99.90;;;;;;5091966;28;20226;-50
2023/03/05 02:09:00;;;;;;;1330.60;748.57;;;3.70;99.90;;;;;;5091949;28;20297;-49
2023/03/05 02:11:28;;;;;;;658.57;592.23;;;3.70;99.90;;;;;;5091173;28;20242;-50
2023/03/05 02:13:56;;;;;;;823.67;748.00;;;3.70;99.90;;;;;;5090995;28;20234;-50
2023/03/05 02:16:24;;;;;;;1968.07;999.90;;;3.70;99.90;;;;;;5090829;28;20208;-49
2023/03/05 02:18:52;;;;;;;1999.90;999.90;;;3.70;99.90;;;;;;5091343;28;20618;-50
2023/03/05 02:21:35;;;;;;;902.70;795.73;;;3.70;99.90;;;;;;5090982;28;20310;-50
2023/03/05 02:24:04;;;;;;;1843.27;970.23;;;3.70;99.90;;;;;;5091783;28;20232;-50
2023/03/05 02:26:32;;;;;;;896.57;807.23;;;3.60;99.90;;;;;;5091048;28;20814;-50
2023/03/05 02:29:03;;;;;;;1573.87;976.73;;;3.60;99.90;;;;;;5091516;28;20291;-49
2023/03/05 02:31:31;;;;;;;672.13;614.07;;;3.60;99.90;;;;;;5090789;28;20776;-49
2023/03/05 02:33:59;;;;;;;661.87;603.67;;;3.70;99.90;;;;;;5091207;28;20216;-50
2023/03/05 02:36:28;;;;;;;973.33;857.73;;;3.70;99.90;;;;;;5091219;28;20208;-49
2023/03/05 02:38:57;;;;;;;681.60;624.47;;;3.70;99.90;;;;;;5090734;28;20295;-49
2023/03/05 02:41:26;;;;;;;756.10;682.83;;;3.80;99.90;;;;;;5090962;28;20227;-50
2023/03/05 02:43:54;;;;;;;638.67;577.83;;;3.80;99.90;;;;;;5085775;28;20291;-49
2023/03/05 02:46:22;;;;;;;716.20;654.53;;;3.80;99.90;;;;;;5091426;28;20234;-50
2023/03/05 02:48:50;;;;;;;382.50;351.67;;;3.80;99.90;;;;;;5089533;28;20208;-50
2023/03/05 02:51:18;;;;;;;304.90;282.73;;;3.80;99.90;;;;;;5090534;28;20229;-50
2023/03/05 02:53:47;;;;;;;405.90;374.47;;;3.90;99.90;;;;;;5105601;28;20292;-49
2023/03/05 02:56:15;;;;;;;349.33;322.00;;;3.90;99.90;;;;;;5091853;28;20305;-49
2023/03/05 02:58:43;;;;;;;458.80;424.07;;;3.80;99.90;;;;;;5090757;28;20292;-50
2023/03/05 03:01:11;;;;;;;255.27;233.90;;;3.90;99.90;;;;;;5090627;28;20313;-49
2023/03/05 03:03:39;;;;;;;423.13;385.30;;;3.80;99.90;;;;;;5091389;28;20270;-50
2023/03/05 03:06:08;;;;;;;352.33;317.93;;;3.80;99.90;;;;;;5091674;28;20206;-50
2023/03/05 03:08:36;;;;;;;461.43;418.33;;;3.80;99.90;;;;;;5091347;28;20642;-50
2023/03/05 03:11:07;;;;;;;358.50;330.33;;;3.70;99.90;;;;;;5091332;28;20701;-50
2023/03/05 03:13:35;;;;;;;218.67;202.57;;;3.80;99.90;;;;;;5090441;28;20240;-49
2023/03/05 03:16:04;;;;;;;388.70;348.00;;;3.80;99.90;;;;;;5090494;28;20314;-49
2023/03/05 03:18:32;;;;;;;402.97;365.63;;;3.80;99.90;;;;;;5089561;28;20300;-49
2023/03/05 03:21:00;;;;;;;329.00;300.40;;;3.80;99.90;;;;;;5090337;28;20248;-50
2023/03/05 03:23:28;;;;;;;412.43;372.03;;;3.80;99.90;;;;;;5090601;28;20657;-49
2023/03/05 03:25:57;;;;;;;289.47;259.57;;;3.80;99.90;;;;;;5087037;28;20206;-50
2023/03/05 03:28:27;;;;;;;331.97;305.63;;;3.80;99.90;;;;;;5089663;28;20276;-49
2023/03/05 03:30:55;;;;;;;446.60;408.37;;;3.80;99.90;;;;;;5089863;28;20323;-50
2023/03/05 03:33:23;;;;;;;384.97;354.20;;;3.80;99.90;;;;;;5090286;28;20208;-49
2023/03/05 03:35:51;;;;;;;458.57;407.97;;;3.80;99.90;;;;;;5089985;28;20244;-50
2023/03/05 03:38:19;;;;;;;281.43;260.57;;;3.80;99.90;;;;;;5090252;28;20213;-49
2023/03/05 03:40:47;;;;;;;412.23;379.77;;;3.70;99.90;;;;;;5089849;28;20233;-50
2023/03/05 03:43:15;;;;;;;400.67;368.23;;;3.80;99.90;;;;;;5089806;28;20307;-50
2023/03/05 03:45:44;;;;;;;429.93;388.20;;;3.80;99.90;;;;;;5089937;28;20298;-50
2023/03/05 03:48:12;;;;;;;430.80;392.90;;;3.70;99.90;;;;;;5089732;28;20235;-51
2023/03/05 03:50:41;;;;;;;745.13;671.77;;;3.70;99.90;;;;;;5089534;28;20307;-52
2023/03/05 03:53:12;;;;;;;655.93;599.73;;;3.70;99.90;;;;;;5089517;28;20664;-50
2023/03/05 03:55:42;;;;;;;507.37;465.30;;;3.70;99.90;;;;;;5089940;28;20253;-51
2023/03/05 03:58:11;;;;;;;625.47;567.67;;;3.70;99.90;;;;;;5090012;28;20253;-50
2023/03/05 04:00:39;;;;;;;441.00;397.17;;;3.70;99.90;;;;;;5089128;28;20227;-51
2023/03/05 04:03:09;;;;;;;637.43;577.73;;;3.70;99.90;;;;;;5089828;28;20200;-51
2023/03/05 04:05:37;;;;;;;450.17;411.20;;;3.70;99.90;;;;;;5089111;28;20295;-51
2023/03/05 04:08:10;;;;;;;533.43;484.83;;;3.70;99.90;;;;;;5089889;28;20218;-49
2023/03/05 04:10:38;;;;;;;435.83;378.43;;;3.80;99.90;;;;;;5089061;28;20391;-50
2023/03/05 04:13:07;;;;;;;547.73;494.07;;;3.80;99.90;;;;;;5089462;28;20332;-50
2023/03/05 04:15:35;;;;;;;487.37;436.97;;;3.70;99.90;;;;;;5089488;28;20300;-50
2023/03/05 04:18:03;;;;;;;616.17;559.33;;;3.70;99.90;;;;;;5089111;28;20660;-50
2023/03/05 04:20:32;;;;;;;441.17;393.23;;;3.80;99.90;;;;;;5089011;28;20255;-50
2023/03/05 04:23:00;;;;;;;548.13;495.43;;;3.80;99.90;;;;;;5089606;28;20280;-50
2023/03/05 04:25:28;;;;;;;410.73;374.67;;;3.70;99.90;;;;;;5089051;28;20213;-50
2023/03/05 04:27:56;;;;;;;539.73;489.47;;;3.80;99.90;;;;;;5089095;28;20344;-49
2023/03/05 04:30:24;;;;;;;773.37;700.60;;;3.80;99.90;;;;;;5089160;28;20302;-50
2023/03/05 04:32:52;;;;;;;674.37;608.70;;;3.70;99.90;;;;;;5088877;28;20280;-49
2023/03/05 04:35:20;;;;;;;458.37;417.70;;;3.70;99.90;;;;;;5089176;28;20262;-50
2023/03/05 04:37:50;;;;;;;404.23;365.57;;;3.70;99.90;;;;;;5088741;28;20233;-50
2023/03/05 04:40:18;;;;;;;505.87;458.90;;;3.70;99.90;;;;;;5087915;28;20312;-50
2023/03/05 04:42:46;;;;;;;463.73;409.43;;;3.70;99.90;;;;;;5088760;28;20235;-49
2023/03/05 04:45:16;;;;;;;319.23;287.97;;;3.70;99.90;;;;;;5088500;28;20207;-51
2023/03/05 04:47:44;;;;;;;322.70;297.90;;;3.70;99.90;;;;;;5088916;28;20255;-49
2023/03/05 04:50:13;;;;;;;249.47;228.00;;;3.80;99.90;;;;;;5088373;28;20322;-49
2023/03/05 04:52:42;;;;;;;425.27;382.87;;;3.80;99.90;;;;;;5088824;28;20247;-49
2023/03/05 04:55:15;;;;;;;490.80;441.50;;;3.80;99.90;;;;;;5088741;28;20218;-49
2023/03/05 04:57:43;;;;;;;442.17;377.00;;;3.70;99.90;;;;;;5089112;28;20291;-50
2023/03/05 05:00:13;;;;;;;162.47;149.83;;;3.70;99.90;;;;;;5092815;28;20310;-50
2023/03/05 05:02:43;;;;;;;225.23;208.50;;;3.80;99.90;;;;;;5095038;28;20197;-50
2023/03/05 05:05:13;;;;;;;274.63;253.70;;;3.80;99.90;;;;;;5093496;28;20240;-50
2023/03/05 05:07:41;;;;;;;394.33;352.13;;;3.80;99.90;;;;;;5089038;28;20283;-49
2023/03/05 05:10:13;;;;;;;197.27;181.83;;;3.70;99.90;;;;;;5088612;28;20318;-50
2023/03/05 05:12:41;;;;;;;261.30;242.43;;;3.70;99.90;;;;;;5088411;28;20772;-50
2023/03/05 05:15:11;;;;;;;202.47;188.77;;;3.80;99.90;;;;;;5088935;28;20211;-48
2023/03/05 05:17:39;;;;;;;352.30;301.97;;;3.70;99.90;;;;;;5088502;28;20287;-50
2023/03/05 05:20:10;;;;;;;167.93;155.53;;;3.70;99.90;;;;;;5088384;28;20266;-50
2023/03/05 05:22:38;;;;;;;261.47;241.37;;;3.60;99.90;;;;;;5089128;28;20203;-50
2023/03/05 05:25:06;;;;;;;394.47;362.50;;;3.70;99.90;;;;;;5088919;28;20246;-50
2023/03/05 05:27:36;;;;;;;445.03;401.03;;;3.70;99.90;;;;;;5088681;28;20701;-50
2023/03/05 05:30:05;;;;;;;334.90;296.70;;;3.60;99.90;;;;;;5088355;28;20310;-50
2023/03/05 05:32:33;;;;;;;326.87;297.73;;;3.60;99.90;;;;;;5088362;28;20274;-50
2023/03/05 05:35:02;;;;;;;265.87;243.53;;;3.70;99.90;;;;;;5088936;28;20230;-50
2023/03/05 05:37:30;;;;;;;214.13;197.93;;;3.70;99.90;;;;;;5088419;28;20210;-51
2023/03/05 05:39:58;;;;;;;386.07;350.23;;;3.70;99.90;;;;;;5084029;28;20309;-51
2023/03/05 05:42:28;;;;;;;197.93;183.57;;;3.70;99.90;;;;;;5088213;28;20242;-50
2023/03/05 05:44:58;;;;;;;324.97;296.57;;;3.70;99.90;;;;;;5088353;28;20649;-52
2023/03/05 05:47:26;;;;;;;257.37;236.27;;;3.70;99.90;;;;;;5088472;28;20209;-51
2023/03/05 05:49:54;;;;;;;203.43;186.80;;;3.70;99.90;;;;;;5089601;28;20414;-51
2023/03/05 05:52:22;;;;;;;207.00;189.43;;;3.70;99.90;;;;;;5103824;28;20232;-51
2023/03/05 05:54:50;;;;;;;285.10;259.63;;;3.70;99.90;;;;;;5100322;28;20245;-51
2023/03/05 05:57:18;;;;;;;282.83;256.17;;;3.70;99.90;;;;;;5098836;28;20287;-52
2023/03/05 05:59:46;;;;;;;254.40;234.33;;;3.60;99.90;;;;;;5094883;28;20294;-51
2023/03/05 06:02:16;;;;;;;140.33;129.60;;;3.70;99.90;;;;;;5099520;28;20286;-51
2023/03/05 06:04:44;;;;;;;213.67;173.87;;;3.60;99.90;;;;;;5097505;28;20254;-51
2023/03/05 06:07:12;;;;;;;133.47;122.03;;;3.60;99.90;;;;;;5107654;28;20239;-51
2023/03/05 06:09:40;;;;;;;355.93;309.80;;;3.70;99.90;;;;;;5103120;28;20204;-51
2023/03/05 06:12:08;;;;;;;190.23;172.93;;;3.70;99.90;;;;;;5096264;28;20234;-51
2023/03/05 06:14:36;;;;;;;216.67;190.10;;;3.60;99.90;;;;;;5091292;28;20282;-51
2023/03/05 06:17:04;;;;;;;295.63;266.60;;;3.60;99.90;;;;;;5102229;28;20611;-51
2023/03/05 06:19:33;;;;;;;309.13;230.70;;;3.60;99.90;;;;;;5096450;28;20676;-51
2023/03/05 06:22:01;;;;;;;218.43;195.83;;;3.60;99.90;;;;;;5101917;28;20201;-52
2023/03/05 06:24:29;;;;;;;293.80;266.83;;;3.60;99.90;;;;;;5104096;28;20265;-51
2023/03/05 06:26:57;;;;;;;234.80;211.57;;;3.60;99.90;;;;;;5111367;28;20243;-52
2023/03/05 06:29:25;;;;;;;204.03;187.50;;;3.60;99.90;;;;;;5108164;28;20287;-51
2023/03/05 06:31:53;;;;;;;240.77;220.30;;;3.60;99.90;;;;;;5101546;28;20701;-52
2023/03/05 06:34:21;;;;;;;123.87;113.60;;;3.60;99.90;;;;;;5097120;28;20219;-50
2023/03/05 06:36:51;;;;;;;931.47;357.93;;;3.60;99.90;;;;;;5092307;28;20758;-51
2023/03/05 06:39:19;;;;;;;257.90;166.77;;;3.70;99.90;;;;;;5096134;28;20301;-52
2023/03/05 06:41:50;;;;;;;153.37;140.57;;;3.70;99.90;;;;;;5097328;28;20321;-50
2023/03/05 06:44:18;;;;;;;129.07;116.67;;;3.70;99.90;;;;;;5105744;28;21246;-51
2023/03/05 06:46:46;;;;;;;125.13;114.93;;;3.70;99.90;;;;;;5106757;28;20207;-50
2023/03/05 06:49:14;;;;;;;231.17;180.00;;;3.70;99.90;;;;;;5100696;28;20286;-50
2023/03/05 06:51:42;;;;;;;212.93;160.83;;;3.70;99.90;;;;;;5101469;28;20229;-52
2023/03/05 06:54:13;;;;;;;163.53;145.07;;;3.70;99.90;;;;;;5099302;28;20793;-51
2023/03/05 06:56:44;;;;;;;302.70;174.57;;;3.70;99.90;;;;;;5091343;28;20206;-50
2023/03/05 06:59:13;;;;;;;131.07;119.20;;;3.70;99.90;;;;;;5104026;28;20229;-50
2023/03/05 07:01:41;;;;;;;199.47;181.90;;;3.70;99.90;;;;;;5102136;28;20303;-51
2023/03/05 07:04:10;;;;;;;195.50;168.70;;;3.70;99.90;;;;;;5089349;28;20247;-51
2023/03/05 07:06:41;;;;;;;130.13;118.10;;;3.70;99.90;;;;;;5090259;28;20303;-50
2023/03/05 07:09:13;;;;;;;167.50;154.67;;;3.70;99.90;;;;;;5090775;28;20751;-51
2023/03/05 07:11:42;;;;;;;235.93;184.47;;;3.80;99.90;;;;;;5089394;28;20323;-51
2023/03/05 07:14:10;;;;;;;254.83;167.43;;;3.80;99.90;;;;;;5088596;28;20311;-50
2023/03/05 07:16:38;;;;;;;361.77;326.17;;;3.70;99.90;;;;;;5093793;28;20237;-51
2023/03/05 07:19:09;;;;;;;232.93;194.77;;;3.70;99.90;;;;;;5091501;28;20202;-51
2023/03/05 07:21:37;;;;;;;193.60;174.33;;;3.70;99.90;;;;;;5090455;28;20286;-51
2023/03/05 07:24:08;;;;;;;225.33;190.27;;;3.70;99.90;;;;;;5090607;28;20284;-51
2023/03/05 07:26:37;;;;;;;331.07;286.33;;;3.70;99.90;;;;;;5090443;28;20615;-50
2023/03/05 07:29:05;;;;;;;87.43;80.57;;;3.80;99.90;;;;;;5089955;28;20215;-52
2023/03/05 07:31:33;;;;;;;240.07;214.00;;;3.80;99.90;;;;;;5089806;28;20662;-52
2023/03/05 07:34:02;;;;;;;283.93;244.47;;;3.80;99.90;;;;;;5090092;28;20314;-51
2023/03/05 07:36:33;;;;;;;212.40;188.53;;;3.80;99.90;;;;;;5077968;28;20204;-51
2023/03/05 07:39:03;;;;;;;157.17;120.27;;;3.80;99.90;;;;;;5089730;28;20247;-50
2023/03/05 07:41:31;;;;;;;230.07;150.90;;;3.90;99.90;;;;;;5089619;28;20279;-50
2023/03/05 07:44:01;;;;;;;287.00;220.03;;;4.00;99.90;;;;;;5089900;28;20863;-50
2023/03/05 07:46:32;;;;;;;198.77;130.43;;;4.10;99.90;;;;;;5089787;28;20227;-51
2023/03/05 07:49:25;;;;;;;234.13;212.03;;;4.10;99.90;;;;;;5089352;28;20625;-51
2023/03/05 07:51:53;;;;;;;326.80;121.23;;;4.20;99.90;;;;;;5089025;28;20309;-50
2023/03/05 07:54:21;;;;;;;151.47;135.03;;;4.20;99.90;;;;;;5090010;28;20220;-52
2023/03/05 07:56:49;;;;;;;132.20;120.17;;;4.20;99.90;;;;;;5089951;28;20293;-55
2023/03/05 07:59:18;;;;;;;154.40;127.13;;;4.20;99.90;;;;;;5089791;28;20228;-51
2023/03/05 08:01:46;;;;;;;103.77;93.73;;;4.20;99.90;;;;;;5088762;28;20232;-51
2023/03/05 08:04:14;;;;;;;186.23;162.57;;;4.30;99.90;;;;;;5089430;28;20210;-50
2023/03/05 08:06:42;;;;;;;100.50;89.40;;;4.40;99.90;;;;;;5089306;28;20832;-51
2023/03/05 08:09:10;;;;;;;214.67;193.77;;;4.50;99.90;;;;;;5095748;28;20208;-51
2023/03/05 08:11:39;;;;;;;944.00;263.83;;;4.50;99.90;;;;;;5084742;28;20319;-52
2023/03/05 08:14:07;;;;;;;197.13;178.30;;;4.40;99.90;;;;;;5089105;28;20604;-52
2023/03/05 08:16:38;;;;;;;266.00;201.60;;;4.40;99.90;;;;;;5097150;28;20720;-51
2023/03/05 08:19:07;;;;;;;228.60;208.07;;;4.50;99.90;;;;;;5101305;28;20207;-51
2023/03/05 08:21:36;;;;;;;216.53;145.63;;;4.50;99.90;;;;;;5095493;28;20701;-51
2023/03/05 08:24:06;;;;;;;387.80;169.40;;;4.60;99.90;;;;;;5093789;28;20279;-50
2023/03/05 08:26:37;;;;;;;236.57;145.17;;;4.70;99.90;;;;;;5088089;28;20293;-51
2023/03/05 08:29:05;;;;;;;920.70;395.93;;;4.70;99.90;;;;;;5085460;28;20755;-52
2023/03/05 08:31:33;;;;;;;977.47;380.87;;;4.70;99.90;;;;;;5085083;28;20232;-51
2023/03/05 08:34:03;;;;;;;166.30;147.83;;;4.70;99.90;;;;;;5087658;28;20226;-51
2023/03/05 08:36:31;;;;;;;538.93;251.57;;;4.60;99.90;;;;;;5085161;28;20288;-51
2023/03/05 08:38:59;;;;;;;830.07;325.43;;;4.60;99.90;;;;;;5087179;28;20208;-52
2023/03/05 08:41:27;;;;;;;1919.07;556.50;;;4.70;99.90;;;;;;5087456;28;20247;-52
2023/03/05 08:43:55;;;;;;;182.23;163.27;;;4.70;99.90;;;;;;5080739;28;20662;-52
2023/03/05 08:46:24;;;;;;;193.47;126.77;;;4.80;99.90;;;;;;5088792;28;20676;-51
2023/03/05 08:48:52;;;;;;;106.70;96.67;;;4.90;99.90;;;;;;5088525;28;20206;-51
2023/03/05 08:51:24;;;;;;;307.80;187.13;;;4.80;99.90;;;;;;5088569;28;20257;-51
2023/03/05 08:53:53;;;;;;;156.87;109.67;;;4.90;99.90;;;;;;5088889;28;20232;-51
2023/03/05 08:56:22;;;;;;;252.03;185.70;;;4.90;99.90;;;;;;5088718;28;20209;-50
2023/03/05 08:58:51;;;;;;;405.77;196.67;;;4.90;99.90;;;;;;5088047;28;20315;-51
2023/03/05 09:01:19;;;;;;;192.20;147.17;;;4.90;99.90;;;;;;5088199;28;20230;-51
2023/03/05 09:03:47;;;;;;;342.90;186.40;;;5.00;99.90;;;;;;5088190;28;20235;-51
2023/03/05 09:06:15;;;;;;;874.87;336.87;;;4.90;99.90;;;;;;5088444;28;20244;-51
2023/03/05 09:08:44;;;;;;;543.80;205.63;;;4.90;99.90;;;;;;5088594;28;20732;-51
2023/03/05 09:11:13;;;;;;;1347.57;399.47;;;4.90;99.90;;;;;;5086977;28;20864;-51
2023/03/05 09:13:41;;;;;;;168.40;141.53;;;4.90;99.90;;;;;;5088231;28;20315;-50
2023/03/05 09:16:12;;;;;;;1510.83;426.90;;;4.80;99.90;;;;;;5088758;28;20325;-51
2023/03/05 09:18:41;;;;;;;459.00;203.57;;;5.00;99.90;;;;;;5088535;28;20213;-51
2023/03/05 09:21:10;;;;;;;986.70;321.53;;;5.20;99.90;;;;;;5087620;28;20647;-51
2023/03/05 09:23:39;;;;;;;1062.33;335.67;;;5.30;99.90;;;;;;5088629;28;20261;-51
2023/03/05 09:26:10;;;;;;;131.53;95.53;;;5.30;99.90;;;;;;5093758;28;20292;-52
2023/03/05 09:28:39;;;;;;;186.57;156.80;;;5.40;99.90;;;;;;5090381;28;20225;-51
2023/03/05 09:31:08;;;;;;;705.37;231.27;;;5.50;99.90;;;;;;5089169;28;20223;-51
2023/03/05 09:33:37;;;;;;;456.63;203.97;;;5.70;99.90;;;;;;5089430;28;20211;-50
2023/03/05 09:36:15;;;;;;;362.90;177.63;;;5.90;99.90;;;;;;5089004;28;20288;-51
2023/03/05 09:38:43;;;;;;;649.77;295.73;;;6.20;99.90;;;;;;5088954;28;20293;-51
2023/03/05 09:41:21;;;;;;;310.43;202.90;;;6.30;99.90;;;;;;5088394;28;20734;-51
2023/03/05 09:43:59;;;;;;;617.57;385.83;;;6.30;99.90;;;;;;5089870;28;20298;-51
2023/03/05 09:46:40;;;;;;;600.57;204.60;;;6.40;99.90;;;;;;5092530;28;20294;-51
2023/03/05 09:49:17;;;;;;;1978.07;740.27;;;6.40;99.90;;;;;;5090291;28;20779;-50
2023/03/05 09:51:49;;;;;;;354.67;287.33;;;6.10;99.90;;;;;;5112208;28;20715;-50
2023/03/05 09:54:21;;;;;;;1042.30;427.47;;;6.00;99.90;;;;;;5112527;28;20290;-51
2023/03/05 09:56:55;;;;;;;1113.73;580.50;;;5.90;99.90;;;;;;5108383;28;20207;-51
2023/03/05 09:59:34;;;;;;;1375.00;710.40;;;5.80;99.90;;;;;;5112451;28;20286;-49
2023/03/05 10:02:11;;;;;;;667.27;460.47;;;5.70;99.90;;;;;;5100798;28;20200;-51
2023/03/05 10:04:44;;;;;;;1175.37;543.83;;;5.70;99.90;;;;;;5112283;28;20660;-52
2023/03/05 10:07:18;;;;;;;1999.90;831.37;;;5.80;99.90;;;;;;5104022;28;20203;-51
2023/03/05 10:09:51;;;;;;;801.57;467.70;;;6.10;99.90;;;;;;5112108;28;20234;-52
2023/03/05 10:12:27;;;;;;;990.77;635.40;;;6.20;99.90;;;;;;5112240;28;20250;-51
2023/03/05 10:14:56;;;;;;;1874.87;728.67;;;6.40;99.90;;;;;;5112419;28;20309;-51
2023/03/05 10:17:56;;;;;;;1547.00;768.23;;;6.40;99.90;;;;;;5085475;28;20253;-51
2023/03/05 10:20:54;;;;;;;1054.80;636.47;;;6.40;99.90;;;;;;5046401;28;20327;-50
2023/03/05 10:23:40;;;;;;;1877.10;650.97;;;6.30;99.90;;;;;;5089307;28;20642;-50
2023/03/05 10:26:20;;;;;;;1999.90;845.33;;;6.20;99.90;;;;;;5110169;28;20260;-51
2023/03/05 10:28:57;;;;;;;1999.90;899.03;;;6.10;99.90;;;;;;5111526;28;20756;-50
2023/03/05 10:31:40;;;;;;;1999.90;725.90;;;5.90;99.90;;;;;;5111139;28;20328;-51
2023/03/05 10:34:32;;;;;;;999.77;411.30;;;5.70;99.90;;;;;;5111515;28;20210;-51
2023/03/05 10:37:12;;;;;;;1019.93;505.00;;;5.70;99.90;;;;;;5109293;28;20203;-51
2023/03/05 10:39:59;;;;;;;641.43;286.10;;;5.70;99.90;;;;;;5096160;28;20297;-50
2023/03/05 10:42:35;;;;;;;1345.93;567.57;;;5.70;99.90;;;;;;5078930;28;20243;-50
2023/03/05 10:45:13;;;;;;;847.53;348.07;;;5.70;99.90;;;;;;5090791;28;20249;-50
2023/03/05 10:47:47;;;;;;;1251.37;442.87;;;5.80;99.90;;;;;;5091203;28;20228;-52
2023/03/05 10:50:19;;;;;;;1999.90;685.13;;;5.70;99.90;;;;;;5088070;28;20321;-52
2023/03/05 10:52:52;;;;;;;1808.17;628.53;;;5.70;99.90;;;;;;5088195;28;20726;-51
2023/03/05 10:55:22;;;;;;;1999.90;832.80;;;5.70;99.90;;;;;;5090692;28;20231;-51
2023/03/05 10:57:50;;;;;;;1999.90;756.03;;;5.60;99.90;;;;;;5090775;28;20208;-51
2023/03/05 11:00:22;;;;;;;993.43;449.53;;;5.60;99.90;;;;;;5090114;28;20312;-52
2023/03/05 11:02:56;;;;;;;1999.90;856.83;;;5.60;99.90;;;;;;5090178;28;20231;-51
2023/03/05 11:05:39;;;;;;;1729.43;611.37;;;5.60;99.90;;;;;;5090556;28;20719;-52
2023/03/05 11:08:24;;;;;;;1999.90;907.87;;;5.60;99.90;;;;;;5090950;28;20294;-50
2023/03/05 11:11:13;;;;;;;1999.90;930.23;;;5.60;99.90;;;;;;5088477;28;20314;-50
2023/03/05 11:13:52;;;;;;;554.33;497.90;;;5.50;99.90;;;;;;5079740;28;20210;-51
2023/03/05 11:16:24;;;;;;;1649.43;708.90;;;5.60;99.90;;;;;;5080382;28;20217;-51
2023/03/05 11:19:16;;;;;;;1314.20;641.30;;;5.70;99.90;;;;;;5088433;28;20212;-51
2023/03/05 11:21:47;;;;;;;666.10;566.27;;;5.90;99.90;;;;;;5083689;28;20712;-51
2023/03/05 11:24:17;;;;;;;728.57;522.40;;;5.90;99.90;;;;;;5084858;28;20724;-50
2023/03/05 11:26:48;;;;;;;1186.83;587.80;;;6.00;99.90;;;;;;5087341;28;20294;-52
2023/03/05 11:29:22;;;;;;;1999.90;741.30;;;6.10;99.90;;;;;;5095891;28;20206;-50
2023/03/05 11:31:52;;;;;;;1999.90;857.37;;;6.20;99.90;;;;;;5103085;28;20313;-50
2023/03/05 11:34:29;;;;;;;1999.90;804.80;;;6.20;99.90;;;;;;5093726;28;20229;-49
2023/03/05 11:37:03;;;;;;;1834.87;760.90;;;6.30;99.90;;;;;;5088726;28;20284;-50
2023/03/05 11:39:34;;;;;;;1690.13;671.03;;;6.30;99.90;;;;;;5081104;28;20298;-49
2023/03/05 11:42:06;;;;;;;898.00;531.23;;;6.20;99.90;;;;;;5086386;28;20692;-51
2023/03/05 11:44:39;;;;;;;1999.90;775.50;;;6.20;99.90;;;;;;5085121;28;20235;-52
2023/03/05 11:47:24;;;;;;;1998.10;784.97;;;6.20;99.90;;;;;;5085907;28;20192;-52
2023/03/05 11:49:55;;;;;;;1641.40;709.90;;;6.20;99.90;;;;;;5084491;28;20618;-51
2023/03/05 11:52:26;;;;;;;1999.90;839.03;;;6.10;99.90;;;;;;5087931;28;20298;-51
2023/03/05 11:55:02;;;;;;;1858.70;555.57;;;6.10;99.90;;;;;;5088577;28;20247;-51
2023/03/05 11:57:40;;;;;;;1321.63;621.50;;;6.10;99.90;;;;;;5088548;28;20639;-52
2023/03/05 12:00:15;;;;;;;783.03;501.67;;;6.00;99.90;;;;;;5088853;28;20769;-51
2023/03/05 12:02:47;;;;;;;934.33;507.73;;;6.00;99.90;;;;;;5089579;28;20215;-50
2023/03/05 12:05:16;;;;;;;694.47;437.83;;;6.00;99.90;;;;;;5089389;28;20889;-51
2023/03/05 12:07:48;;;;;;;1904.40;703.90;;;5.90;99.90;;;;;;5088982;28;20290;-51
2023/03/05 12:10:19;;;;;;;652.00;526.73;;;5.90;99.90;;;;;;5089021;28;20238;-50
2023/03/05 12:12:52;;;;;;;1020.30;617.43;;;5.90;99.90;;;;;;5089160;28;20654;-50
2023/03/05 12:15:49;;;;;;;834.07;691.17;;;5.90;99.90;;;;;;5089533;28;20579;-51
2023/03/05 12:18:28;;;;;;;853.63;657.07;;;5.80;99.90;;;;;;5089484;28;20211;-50
2023/03/05 12:21:04;;;;;;;1381.03;819.83;;;5.70;99.90;;;;;;5088693;28;20743;-51
2023/03/05 12:23:45;;;;;;;1926.37;839.30;;;5.70;99.90;;;;;;5078861;28;20214;-50
2023/03/05 12:26:14;;;;;;;930.63;619.63;;;5.70;99.90;;;;;;5088953;28;20194;-51
2023/03/05 12:28:57;;;;;;;812.63;550.13;;;5.70;99.90;;;;;;5089222;28;20580;-50
2023/03/05 12:31:37;;;;;;;459.43;367.67;;;5.80;99.90;;;;;;5088800;28;20250;-51
2023/03/05 12:34:52;;;;;;;901.70;498.40;;;5.70;99.90;;;;;;5104452;28;20215;-49